sensor_id;sensor_type;location;lat;lon;timestamp;P1;durP1;ratioP1;P2;durP2;ratioP2
56991;SDS011;42885;49.754;18.636;2023-04-22T00:01:12;50.90;;;30.08;;
56991;SDS011;42885;49.754;18.636;2023-04-22T00:03:43;49.83;;;29.27;;
56991;SDS011;42885;49.754;18.636;2023-04-22T00:06:14;46.40;;;29.13;;
56991;SDS011;42885;49.754;18.636;2023-04-22T00:08:45;46.45;;;27.13;;
56991;SDS011;42885;49.754;18.636;2023-04-22T00:11:16;46.25;;;27.87;;
56991;SDS011;42885;49.754;18.636;2023-04-22T00:13:46;48.13;;;27.05;;
56991;SDS011;42885;49.754;18.636;2023-04-22T00:16:17;54.30;;;28.50;;
56991;SDS011;42885;49.754;18.636;2023-04-22T00:18:49;48.78;;;27.27;;
56991;SDS011;42885;49.754;18.636;2023-04-22T00:21:20;52.23;;;29.27;;
56991;SDS011;42885;49.754;18.636;2023-04-22T00:23:51;58.05;;;29.37;;
56991;SDS011;42885;49.754;18.636;2023-04-22T00:26:22;68.30;;;34.15;;
56991;SDS011;42885;49.754;18.636;2023-04-22T00:28:53;67.53;;;36.08;;
56991;SDS011;42885;49.754;18.636;2023-04-22T00:31:24;52.80;;;30.27;;
56991;SDS011;42885;49.754;18.636;2023-04-22T00:33:55;52.30;;;30.97;;
56991;SDS011;42885;49.754;18.636;2023-04-22T00:36:26;63.60;;;34.92;;
56991;SDS011;42885;49.754;18.636;2023-04-22T00:38:58;56.92;;;30.18;;
56991;SDS011;42885;49.754;18.636;2023-04-22T00:41:29;48.13;;;29.12;;
56991;SDS011;42885;49.754;18.636;2023-04-22T00:44:01;51.10;;;26.60;;
56991;SDS011;42885;49.754;18.636;2023-04-22T00:46:33;39.18;;;24.57;;
56991;SDS011;42885;49.754;18.636;2023-04-22T00:49:06;41.15;;;25.62;;
56991;SDS011;42885;49.754;18.636;2023-04-22T00:51:37;47.98;;;26.82;;
56991;SDS011;42885;49.754;18.636;2023-04-22T00:54:08;44.83;;;26.82;;
56991;SDS011;42885;49.754;18.636;2023-04-22T00:56:39;41.55;;;26.70;;
56991;SDS011;42885;49.754;18.636;2023-04-22T00:59:10;43.38;;;24.82;;
56991;SDS011;42885;49.754;18.636;2023-04-22T01:01:42;42.93;;;25.62;;
56991;SDS011;42885;49.754;18.636;2023-04-22T01:04:13;40.83;;;25.95;;
56991;SDS011;42885;49.754;18.636;2023-04-22T01:06:45;42.70;;;25.60;;
56991;SDS011;42885;49.754;18.636;2023-04-22T01:09:18;44.42;;;25.48;;
56991;SDS011;42885;49.754;18.636;2023-04-22T01:11:49;40.90;;;24.57;;
56991;SDS011;42885;49.754;18.636;2023-04-22T01:14:20;40.92;;;25.72;;
56991;SDS011;42885;49.754;18.636;2023-04-22T01:16:51;41.23;;;24.35;;
56991;SDS011;42885;49.754;18.636;2023-04-22T01:19:22;40.50;;;23.62;;
56991;SDS011;42885;49.754;18.636;2023-04-22T01:21:55;38.42;;;23.98;;
56991;SDS011;42885;49.754;18.636;2023-04-22T01:24:27;39.63;;;24.37;;
56991;SDS011;42885;49.754;18.636;2023-04-22T01:26:58;40.45;;;24.98;;
56991;SDS011;42885;49.754;18.636;2023-04-22T01:29:29;46.28;;;24.98;;
56991;SDS011;42885;49.754;18.636;2023-04-22T01:32:01;38.70;;;24.10;;
56991;SDS011;42885;49.754;18.636;2023-04-22T01:34:32;39.65;;;23.83;;
56991;SDS011;42885;49.754;18.636;2023-04-22T01:37:04;42.67;;;25.70;;
56991;SDS011;42885;49.754;18.636;2023-04-22T01:39:36;44.27;;;24.90;;
56991;SDS011;42885;49.754;18.636;2023-04-22T01:42:07;38.77;;;24.10;;
56991;SDS011;42885;49.754;18.636;2023-04-22T01:44:38;39.65;;;24.50;;
56991;SDS011;42885;49.754;18.636;2023-04-22T01:47:10;56.60;;;32.20;;
56991;SDS011;42885;49.754;18.636;2023-04-22T01:49:41;65.40;;;42.83;;
56991;SDS011;42885;49.754;18.636;2023-04-22T01:52:15;95.72;;;59.35;;
56991;SDS011;42885;49.754;18.636;2023-04-22T01:54:46;110.23;;;71.17;;
56991;SDS011;42885;49.754;18.636;2023-04-22T01:57:18;102.92;;;65.97;;
56991;SDS011;42885;49.754;18.636;2023-04-22T01:59:49;88.47;;;59.40;;
56991;SDS011;42885;49.754;18.636;2023-04-22T02:02:19;81.37;;;54.80;;
56991;SDS011;42885;49.754;18.636;2023-04-22T02:04:51;70.60;;;45.98;;
56991;SDS011;42885;49.754;18.636;2023-04-22T02:07:23;59.95;;;40.40;;
56991;SDS011;42885;49.754;18.636;2023-04-22T02:09:54;42.60;;;26.17;;
56991;SDS011;42885;49.754;18.636;2023-04-22T02:12:25;49.30;;;26.60;;
56991;SDS011;42885;49.754;18.636;2023-04-22T02:14:56;39.60;;;21.97;;
56991;SDS011;42885;49.754;18.636;2023-04-22T02:17:27;33.30;;;21.60;;
56991;SDS011;42885;49.754;18.636;2023-04-22T02:19:58;35.50;;;22.85;;
56991;SDS011;42885;49.754;18.636;2023-04-22T02:22:31;44.48;;;22.80;;
56991;SDS011;42885;49.754;18.636;2023-04-22T02:25:02;38.73;;;22.67;;
56991;SDS011;42885;49.754;18.636;2023-04-22T02:27:33;37.75;;;21.25;;
56991;SDS011;42885;49.754;18.636;2023-04-22T02:30:04;36.47;;;22.13;;
56991;SDS011;42885;49.754;18.636;2023-04-22T02:32:37;32.45;;;21.57;;
56991;SDS011;42885;49.754;18.636;2023-04-22T02:35:08;33.75;;;20.77;;
56991;SDS011;42885;49.754;18.636;2023-04-22T02:37:40;34.93;;;21.07;;
56991;SDS011;42885;49.754;18.636;2023-04-22T02:40:11;38.73;;;22.03;;
56991;SDS011;42885;49.754;18.636;2023-04-22T02:42:42;36.98;;;21.48;;
56991;SDS011;42885;49.754;18.636;2023-04-22T02:45:13;35.87;;;22.03;;
56991;SDS011;42885;49.754;18.636;2023-04-22T02:47:45;33.58;;;21.50;;
56991;SDS011;42885;49.754;18.636;2023-04-22T02:50:16;35.80;;;21.73;;
56991;SDS011;42885;49.754;18.636;2023-04-22T02:52:47;34.63;;;21.42;;
56991;SDS011;42885;49.754;18.636;2023-04-22T02:55:19;39.38;;;22.25;;
56991;SDS011;42885;49.754;18.636;2023-04-22T02:57:52;32.57;;;21.40;;
56991;SDS011;42885;49.754;18.636;2023-04-22T03:00:22;37.93;;;21.70;;
56991;SDS011;42885;49.754;18.636;2023-04-22T03:02:54;34.20;;;21.62;;
56991;SDS011;42885;49.754;18.636;2023-04-22T03:05:29;35.83;;;23.00;;
56991;SDS011;42885;49.754;18.636;2023-04-22T03:08:01;35.07;;;20.97;;
56991;SDS011;42885;49.754;18.636;2023-04-22T03:10:32;32.63;;;20.40;;
56991;SDS011;42885;49.754;18.636;2023-04-22T03:13:02;30.45;;;18.75;;
56991;SDS011;42885;49.754;18.636;2023-04-22T03:15:34;31.05;;;19.62;;
56991;SDS011;42885;49.754;18.636;2023-04-22T03:18:05;30.20;;;19.33;;
56991;SDS011;42885;49.754;18.636;2023-04-22T03:20:37;31.00;;;19.80;;
56991;SDS011;42885;49.754;18.636;2023-04-22T03:23:10;36.05;;;19.80;;
56991;SDS011;42885;49.754;18.636;2023-04-22T03:25:41;29.63;;;18.70;;
56991;SDS011;42885;49.754;18.636;2023-04-22T03:28:13;33.00;;;19.15;;
56991;SDS011;42885;49.754;18.636;2023-04-22T03:30:44;32.80;;;19.42;;
56991;SDS011;42885;49.754;18.636;2023-04-22T03:33:15;33.07;;;19.70;;
56991;SDS011;42885;49.754;18.636;2023-04-22T03:35:51;34.10;;;19.55;;
56991;SDS011;42885;49.754;18.636;2023-04-22T03:38:23;34.85;;;19.25;;
56991;SDS011;42885;49.754;18.636;2023-04-22T03:40:55;31.48;;;18.27;;
56991;SDS011;42885;49.754;18.636;2023-04-22T03:43:42;32.50;;;18.80;;
56991;SDS011;42885;49.754;18.636;2023-04-22T03:46:14;30.45;;;19.32;;
56991;SDS011;42885;49.754;18.636;2023-04-22T03:48:47;29.92;;;19.45;;
56991;SDS011;42885;49.754;18.636;2023-04-22T03:51:19;34.20;;;21.62;;
56991;SDS011;42885;49.754;18.636;2023-04-22T03:53:51;34.80;;;20.95;;
56991;SDS011;42885;49.754;18.636;2023-04-22T03:56:23;37.38;;;22.27;;
56991;SDS011;42885;49.754;18.636;2023-04-22T03:58:56;38.00;;;22.43;;
56991;SDS011;42885;49.754;18.636;2023-04-22T04:01:27;49.63;;;22.85;;
56991;SDS011;42885;49.754;18.636;2023-04-22T04:04:00;38.30;;;21.50;;
56991;SDS011;42885;49.754;18.636;2023-04-22T04:06:33;32.27;;;19.97;;
56991;SDS011;42885;49.754;18.636;2023-04-22T04:09:05;30.93;;;19.87;;
56991;SDS011;42885;49.754;18.636;2023-04-22T04:11:36;33.60;;;20.30;;
56991;SDS011;42885;49.754;18.636;2023-04-22T04:14:07;37.10;;;20.48;;
56991;SDS011;42885;49.754;18.636;2023-04-22T04:16:42;32.13;;;19.85;;
56991;SDS011;42885;49.754;18.636;2023-04-22T04:19:15;32.70;;;19.77;;
56991;SDS011;42885;49.754;18.636;2023-04-22T04:21:47;32.85;;;19.57;;
56991;SDS011;42885;49.754;18.636;2023-04-22T04:24:20;32.67;;;19.80;;
56991;SDS011;42885;49.754;18.636;2023-04-22T04:26:52;32.48;;;19.57;;
56991;SDS011;42885;49.754;18.636;2023-04-22T04:29:25;33.70;;;20.43;;
56991;SDS011;42885;49.754;18.636;2023-04-22T04:32:04;33.25;;;21.10;;
56991;SDS011;42885;49.754;18.636;2023-04-22T04:34:36;39.00;;;21.40;;
56991;SDS011;42885;49.754;18.636;2023-04-22T04:37:08;42.05;;;23.38;;
56991;SDS011;42885;49.754;18.636;2023-04-22T04:39:44;34.40;;;20.97;;
56991;SDS011;42885;49.754;18.636;2023-04-22T04:42:15;49.27;;;23.40;;
56991;SDS011;42885;49.754;18.636;2023-04-22T04:44:48;33.67;;;21.73;;
56991;SDS011;42885;49.754;18.636;2023-04-22T04:47:21;29.77;;;19.67;;
56991;SDS011;42885;49.754;18.636;2023-04-22T04:49:54;34.10;;;21.20;;
56991;SDS011;42885;49.754;18.636;2023-04-22T04:52:26;32.20;;;20.32;;
56991;SDS011;42885;49.754;18.636;2023-04-22T04:54:58;35.10;;;22.32;;
56991;SDS011;42885;49.754;18.636;2023-04-22T04:57:29;34.10;;;22.42;;
56991;SDS011;42885;49.754;18.636;2023-04-22T05:00:01;35.05;;;22.67;;
56991;SDS011;42885;49.754;18.636;2023-04-22T05:02:36;36.05;;;23.95;;
56991;SDS011;42885;49.754;18.636;2023-04-22T05:05:07;42.85;;;24.37;;
56991;SDS011;42885;49.754;18.636;2023-04-22T05:07:40;40.37;;;23.20;;
56991;SDS011;42885;49.754;18.636;2023-04-22T05:10:11;35.30;;;22.27;;
56991;SDS011;42885;49.754;18.636;2023-04-22T05:12:43;38.13;;;22.02;;
56991;SDS011;42885;49.754;18.636;2023-04-22T05:15:17;37.30;;;22.35;;
56991;SDS011;42885;49.754;18.636;2023-04-22T05:18:07;32.07;;;21.60;;
56991;SDS011;42885;49.754;18.636;2023-04-22T05:20:58;40.66;;;22.48;;
56991;SDS011;42885;49.754;18.636;2023-04-22T05:23:41;37.67;;;22.15;;
56991;SDS011;42885;49.754;18.636;2023-04-22T05:26:12;40.65;;;21.48;;
56991;SDS011;42885;49.754;18.636;2023-04-22T05:29:01;32.75;;;21.95;;
56991;SDS011;42885;49.754;18.636;2023-04-22T05:31:44;37.95;;;20.82;;
56991;SDS011;42885;49.754;18.636;2023-04-22T05:34:15;31.10;;;20.55;;
56991;SDS011;42885;49.754;18.636;2023-04-22T05:37:06;34.00;;;20.72;;
56991;SDS011;42885;49.754;18.636;2023-04-22T05:39:57;36.27;;;19.17;;
56991;SDS011;42885;49.754;18.636;2023-04-22T05:42:33;27.75;;;17.20;;
56991;SDS011;42885;49.754;18.636;2023-04-22T05:45:15;28.83;;;16.97;;
56991;SDS011;42885;49.754;18.636;2023-04-22T05:47:47;28.65;;;16.93;;
56991;SDS011;42885;49.754;18.636;2023-04-22T05:50:19;30.27;;;16.12;;
56991;SDS011;42885;49.754;18.636;2023-04-22T05:53:02;28.83;;;15.40;;
56991;SDS011;42885;49.754;18.636;2023-04-22T05:55:34;26.67;;;15.70;;
56991;SDS011;42885;49.754;18.636;2023-04-22T05:58:16;21.65;;;13.32;;
56991;SDS011;42885;49.754;18.636;2023-04-22T06:01:09;18.65;;;12.70;;
56991;SDS011;42885;49.754;18.636;2023-04-22T06:03:51;20.48;;;12.05;;
56991;SDS011;42885;49.754;18.636;2023-04-22T06:06:22;17.05;;;11.80;;
56991;SDS011;42885;49.754;18.636;2023-04-22T06:08:58;19.44;;;12.70;;
56991;SDS011;42885;49.754;18.636;2023-04-22T06:11:29;20.88;;;12.50;;
56991;SDS011;42885;49.754;18.636;2023-04-22T06:14:00;21.23;;;12.50;;
56991;SDS011;42885;49.754;18.636;2023-04-22T06:16:41;20.17;;;11.33;;
56991;SDS011;42885;49.754;18.636;2023-04-22T06:19:12;18.12;;;11.57;;
56991;SDS011;42885;49.754;18.636;2023-04-22T06:21:44;19.15;;;11.65;;
56991;SDS011;42885;49.754;18.636;2023-04-22T06:24:33;19.32;;;11.03;;
56991;SDS011;42885;49.754;18.636;2023-04-22T06:27:24;18.83;;;10.30;;
56991;SDS011;42885;49.754;18.636;2023-04-22T06:30:13;13.07;;;9.37;;
56991;SDS011;42885;49.754;18.636;2023-04-22T06:32:44;16.75;;;9.70;;
56991;SDS011;42885;49.754;18.636;2023-04-22T06:35:17;16.43;;;9.50;;
56991;SDS011;42885;49.754;18.636;2023-04-22T06:37:49;16.12;;;9.80;;
56991;SDS011;42885;49.754;18.636;2023-04-22T06:40:21;16.37;;;10.20;;
56991;SDS011;42885;49.754;18.636;2023-04-22T06:43:03;13.72;;;8.98;;
56991;SDS011;42885;49.754;18.636;2023-04-22T06:45:45;14.75;;;9.68;;
56991;SDS011;42885;49.754;18.636;2023-04-22T06:48:21;17.25;;;9.58;;
56991;SDS011;42885;49.754;18.636;2023-04-22T06:51:09;16.20;;;9.07;;
56991;SDS011;42885;49.754;18.636;2023-04-22T06:53:41;19.45;;;9.60;;
56991;SDS011;42885;49.754;18.636;2023-04-22T06:56:14;18.97;;;10.23;;
56991;SDS011;42885;49.754;18.636;2023-04-22T06:58:45;18.87;;;8.48;;
56991;SDS011;42885;49.754;18.636;2023-04-22T07:01:16;12.30;;;8.70;;
56991;SDS011;42885;49.754;18.636;2023-04-22T07:03:47;15.75;;;9.10;;
56991;SDS011;42885;49.754;18.636;2023-04-22T07:06:20;16.15;;;8.90;;
56991;SDS011;42885;49.754;18.636;2023-04-22T07:08:51;11.75;;;8.50;;
56991;SDS011;42885;49.754;18.636;2023-04-22T07:11:22;16.67;;;8.38;;
56991;SDS011;42885;49.754;18.636;2023-04-22T07:14:12;11.70;;;8.03;;
56991;SDS011;42885;49.754;18.636;2023-04-22T07:16:43;10.75;;;7.33;;
56991;SDS011;42885;49.754;18.636;2023-04-22T07:19:15;13.83;;;9.25;;
56991;SDS011;42885;49.754;18.636;2023-04-22T07:21:46;17.37;;;7.72;;
56991;SDS011;42885;49.754;18.636;2023-04-22T07:24:17;16.70;;;7.37;;
56991;SDS011;42885;49.754;18.636;2023-04-22T07:26:50;9.75;;;6.85;;
56991;SDS011;42885;49.754;18.636;2023-04-22T07:29:21;11.48;;;6.65;;
56991;SDS011;42885;49.754;18.636;2023-04-22T07:31:52;10.83;;;7.43;;
56991;SDS011;42885;49.754;18.636;2023-04-22T07:34:24;11.03;;;7.03;;
56991;SDS011;42885;49.754;18.636;2023-04-22T07:36:55;9.60;;;7.10;;
56991;SDS011;42885;49.754;18.636;2023-04-22T07:39:26;12.50;;;7.42;;
56991;SDS011;42885;49.754;18.636;2023-04-22T07:41:58;11.03;;;7.17;;
56991;SDS011;42885;49.754;18.636;2023-04-22T07:44:31;21.87;;;7.67;;
56991;SDS011;42885;49.754;18.636;2023-04-22T07:47:02;10.25;;;7.42;;
56991;SDS011;42885;49.754;18.636;2023-04-22T07:49:33;11.45;;;7.17;;
56991;SDS011;42885;49.754;18.636;2023-04-22T07:52:04;16.37;;;8.00;;
56991;SDS011;42885;49.754;18.636;2023-04-22T07:54:35;10.13;;;7.67;;
56991;SDS011;42885;49.754;18.636;2023-04-22T07:57:06;14.60;;;7.53;;
56991;SDS011;42885;49.754;18.636;2023-04-22T07:59:37;10.98;;;6.90;;
56991;SDS011;42885;49.754;18.636;2023-04-22T08:02:08;10.00;;;6.00;;
56991;SDS011;42885;49.754;18.636;2023-04-22T08:04:39;8.05;;;5.92;;
56991;SDS011;42885;49.754;18.636;2023-04-22T08:07:11;8.18;;;6.22;;
56991;SDS011;42885;49.754;18.636;2023-04-22T08:09:43;11.77;;;6.60;;
56991;SDS011;42885;49.754;18.636;2023-04-22T08:12:14;13.23;;;5.67;;
56991;SDS011;42885;49.754;18.636;2023-04-22T08:14:45;9.10;;;6.20;;
56991;SDS011;42885;49.754;18.636;2023-04-22T08:17:16;9.53;;;5.80;;
56991;SDS011;42885;49.754;18.636;2023-04-22T08:19:49;14.70;;;8.05;;
56991;SDS011;42885;49.754;18.636;2023-04-22T08:22:20;10.05;;;6.20;;
56991;SDS011;42885;49.754;18.636;2023-04-22T08:24:52;9.68;;;6.03;;
56991;SDS011;42885;49.754;18.636;2023-04-22T08:27:23;15.45;;;7.90;;
56991;SDS011;42885;49.754;18.636;2023-04-22T08:29:54;6.30;;;5.33;;
56991;SDS011;42885;49.754;18.636;2023-04-22T08:32:25;11.55;;;5.25;;
56991;SDS011;42885;49.754;18.636;2023-04-22T08:34:56;6.65;;;4.40;;
56991;SDS011;42885;49.754;18.636;2023-04-22T08:37:28;11.50;;;5.40;;
56991;SDS011;42885;49.754;18.636;2023-04-22T08:39:59;9.50;;;5.10;;
56991;SDS011;42885;49.754;18.636;2023-04-22T08:42:30;7.65;;;4.87;;
56991;SDS011;42885;49.754;18.636;2023-04-22T08:45:02;9.25;;;4.35;;
56991;SDS011;42885;49.754;18.636;2023-04-22T08:47:34;7.50;;;4.42;;
56991;SDS011;42885;49.754;18.636;2023-04-22T08:50:07;14.30;;;5.90;;
56991;SDS011;42885;49.754;18.636;2023-04-22T08:52:46;9.60;;;5.33;;
56991;SDS011;42885;49.754;18.636;2023-04-22T08:55:12;7.83;;;5.13;;
56991;SDS011;42885;49.754;18.636;2023-04-22T08:57:43;9.40;;;6.60;;
56991;SDS011;42885;49.754;18.636;2023-04-22T09:00:15;27.42;;;20.05;;
56991;SDS011;42885;49.754;18.636;2023-04-22T09:02:47;10.53;;;5.60;;
56991;SDS011;42885;49.754;18.636;2023-04-22T09:05:20;7.58;;;5.25;;
56991;SDS011;42885;49.754;18.636;2023-04-22T09:07:52;11.38;;;7.10;;
56991;SDS011;42885;49.754;18.636;2023-04-22T09:10:25;15.53;;;10.63;;
56991;SDS011;42885;49.754;18.636;2023-04-22T09:12:57;8.20;;;5.47;;
56991;SDS011;42885;49.754;18.636;2023-04-22T09:15:28;9.30;;;5.83;;
56991;SDS011;42885;49.754;18.636;2023-04-22T09:18:00;20.52;;;6.00;;
56991;SDS011;42885;49.754;18.636;2023-04-22T09:20:35;7.67;;;5.10;;
56991;SDS011;42885;49.754;18.636;2023-04-22T09:23:06;6.83;;;5.27;;
56991;SDS011;42885;49.754;18.636;2023-04-22T09:25:37;8.07;;;5.23;;
56991;SDS011;42885;49.754;18.636;2023-04-22T09:28:15;8.90;;;5.80;;
56991;SDS011;42885;49.754;18.636;2023-04-22T09:30:48;8.58;;;6.12;;
56991;SDS011;42885;49.754;18.636;2023-04-22T09:33:19;8.93;;;5.58;;
56991;SDS011;42885;49.754;18.636;2023-04-22T09:35:49;11.15;;;6.45;;
56991;SDS011;42885;49.754;18.636;2023-04-22T09:38:21;13.50;;;5.57;;
56991;SDS011;42885;49.754;18.636;2023-04-22T09:40:52;25.95;;;20.35;;
56991;SDS011;42885;49.754;18.636;2023-04-22T09:43:23;13.10;;;8.05;;
56991;SDS011;42885;49.754;18.636;2023-04-22T09:45:54;9.88;;;6.35;;
56991;SDS011;42885;49.754;18.636;2023-04-22T09:48:29;9.65;;;5.80;;
56991;SDS011;42885;49.754;18.636;2023-04-22T09:51:02;11.05;;;6.25;;
56991;SDS011;42885;49.754;18.636;2023-04-22T09:53:38;7.37;;;5.70;;
56991;SDS011;42885;49.754;18.636;2023-04-22T09:56:09;48.20;;;38.70;;
56991;SDS011;42885;49.754;18.636;2023-04-22T09:58:41;10.85;;;6.75;;
56991;SDS011;42885;49.754;18.636;2023-04-22T10:01:16;9.88;;;6.60;;
56991;SDS011;42885;49.754;18.636;2023-04-22T10:03:53;8.60;;;6.12;;
56991;SDS011;42885;49.754;18.636;2023-04-22T10:06:24;9.03;;;5.03;;
56991;SDS011;42885;49.754;18.636;2023-04-22T10:09:02;9.63;;;5.55;;
56991;SDS011;42885;49.754;18.636;2023-04-22T10:11:40;11.90;;;5.87;;
56991;SDS011;42885;49.754;18.636;2023-04-22T10:14:32;9.48;;;5.70;;
56991;SDS011;42885;49.754;18.636;2023-04-22T10:17:06;8.48;;;5.67;;
56991;SDS011;42885;49.754;18.636;2023-04-22T10:19:38;7.35;;;6.00;;
56991;SDS011;42885;49.754;18.636;2023-04-22T10:22:10;8.40;;;5.00;;
56991;SDS011;42885;49.754;18.636;2023-04-22T10:24:42;6.80;;;5.50;;
56991;SDS011;42885;49.754;18.636;2023-04-22T10:27:19;9.30;;;5.53;;
56991;SDS011;42885;49.754;18.636;2023-04-22T10:29:50;8.68;;;5.42;;
56991;SDS011;42885;49.754;18.636;2023-04-22T10:32:22;8.73;;;5.47;;
56991;SDS011;42885;49.754;18.636;2023-04-22T10:35:07;6.95;;;5.45;;
56991;SDS011;42885;49.754;18.636;2023-04-22T10:37:43;12.85;;;5.47;;
56991;SDS011;42885;49.754;18.636;2023-04-22T10:40:17;11.93;;;5.03;;
56991;SDS011;42885;49.754;18.636;2023-04-22T10:42:51;7.47;;;5.00;;
56991;SDS011;42885;49.754;18.636;2023-04-22T10:45:24;7.08;;;5.10;;
56991;SDS011;42885;49.754;18.636;2023-04-22T10:47:56;15.90;;;11.20;;
56991;SDS011;42885;49.754;18.636;2023-04-22T10:50:30;9.98;;;5.83;;
56991;SDS011;42885;49.754;18.636;2023-04-22T10:56:22;10.00;;;5.65;;
56991;SDS011;42885;49.754;18.636;2023-04-22T10:58:56;9.35;;;5.95;;
56991;SDS011;42885;49.754;18.636;2023-04-22T11:01:28;8.25;;;5.03;;
56991;SDS011;42885;49.754;18.636;2023-04-22T11:04:17;7.35;;;5.75;;
56991;SDS011;42885;49.754;18.636;2023-04-22T11:15:11;7.57;;;5.53;;
56991;SDS011;42885;49.754;18.636;2023-04-22T11:18:18;10.43;;;6.65;;
56991;SDS011;42885;49.754;18.636;2023-04-22T11:21:14;10.60;;;5.58;;
56991;SDS011;42885;49.754;18.636;2023-04-22T11:24:03;7.87;;;5.53;;
56991;SDS011;42885;49.754;18.636;2023-04-22T11:26:53;23.57;;;18.62;;
56991;SDS011;42885;49.754;18.636;2023-04-22T11:29:31;7.90;;;4.97;;
56991;SDS011;42885;49.754;18.636;2023-04-22T11:32:20;6.15;;;5.37;;
56991;SDS011;42885;49.754;18.636;2023-04-22T11:37:46;7.62;;;5.30;;
56991;SDS011;42885;49.754;18.636;2023-04-22T11:40:19;10.28;;;6.33;;
56991;SDS011;42885;49.754;18.636;2023-04-22T11:42:53;7.40;;;6.07;;
56991;SDS011;42885;49.754;18.636;2023-04-22T11:45:24;16.17;;;10.20;;
56991;SDS011;42885;49.754;18.636;2023-04-22T11:48:06;16.03;;;8.10;;
56991;SDS011;42885;49.754;18.636;2023-04-22T11:50:41;15.98;;;7.87;;
56991;SDS011;42885;49.754;18.636;2023-04-22T11:53:31;10.25;;;6.12;;
56991;SDS011;42885;49.754;18.636;2023-04-22T11:56:07;13.18;;;7.05;;
56991;SDS011;42885;49.754;18.636;2023-04-22T11:58:38;8.30;;;7.07;;
56991;SDS011;42885;49.754;18.636;2023-04-22T12:01:11;32.40;;;18.20;;
56991;SDS011;42885;49.754;18.636;2023-04-22T12:03:42;17.60;;;13.53;;
56991;SDS011;42885;49.754;18.636;2023-04-22T12:06:17;10.65;;;8.93;;
56991;SDS011;42885;49.754;18.636;2023-04-22T12:08:49;10.25;;;8.85;;
56991;SDS011;42885;49.754;18.636;2023-04-22T12:11:20;7.97;;;5.87;;
56991;SDS011;42885;49.754;18.636;2023-04-22T12:13:51;10.47;;;5.93;;
56991;SDS011;42885;49.754;18.636;2023-04-22T12:16:22;59.83;;;53.40;;
56991;SDS011;42885;49.754;18.636;2023-04-22T12:18:54;11.97;;;7.53;;
56991;SDS011;42885;49.754;18.636;2023-04-22T12:21:25;10.97;;;5.77;;
56991;SDS011;42885;49.754;18.636;2023-04-22T12:24:02;6.37;;;5.33;;
56991;SDS011;42885;49.754;18.636;2023-04-22T12:26:35;10.93;;;7.22;;
56991;SDS011;42885;49.754;18.636;2023-04-22T12:29:08;6.65;;;5.10;;
56991;SDS011;42885;49.754;18.636;2023-04-22T12:31:39;13.27;;;7.63;;
56991;SDS011;42885;49.754;18.636;2023-04-22T12:34:10;6.73;;;5.10;;
56991;SDS011;42885;49.754;18.636;2023-04-22T12:36:59;8.33;;;6.05;;
56991;SDS011;42885;49.754;18.636;2023-04-22T12:39:32;6.08;;;5.47;;
56991;SDS011;42885;49.754;18.636;2023-04-22T12:42:14;9.58;;;6.10;;
56991;SDS011;42885;49.754;18.636;2023-04-22T12:44:45;7.92;;;4.87;;
56991;SDS011;42885;49.754;18.636;2023-04-22T12:47:30;11.18;;;6.05;;
56991;SDS011;42885;49.754;18.636;2023-04-22T12:50:21;9.60;;;6.72;;
56991;SDS011;42885;49.754;18.636;2023-04-22T12:53:10;11.43;;;9.57;;
56991;SDS011;42885;49.754;18.636;2023-04-22T12:55:57;13.78;;;12.33;;
56991;SDS011;42885;49.754;18.636;2023-04-22T12:58:28;8.73;;;6.43;;
56991;SDS011;42885;49.754;18.636;2023-04-22T13:01:18;9.13;;;5.60;;
56991;SDS011;42885;49.754;18.636;2023-04-22T13:03:53;9.20;;;6.35;;
56991;SDS011;42885;49.754;18.636;2023-04-22T13:06:24;12.70;;;6.10;;
56991;SDS011;42885;49.754;18.636;2023-04-22T13:11:27;8.63;;;5.55;;
56991;SDS011;42885;49.754;18.636;2023-04-22T13:13:58;6.60;;;5.27;;
56991;SDS011;42885;49.754;18.636;2023-04-22T13:16:29;6.40;;;5.10;;
56991;SDS011;42885;49.754;18.636;2023-04-22T13:19:00;7.90;;;5.37;;
56991;SDS011;42885;49.754;18.636;2023-04-22T13:21:50;6.17;;;5.50;;
56991;SDS011;42885;49.754;18.636;2023-04-22T13:24:21;8.13;;;4.93;;
56991;SDS011;42885;49.754;18.636;2023-04-22T13:26:52;8.40;;;5.50;;
56991;SDS011;42885;49.754;18.636;2023-04-22T13:29:24;5.53;;;5.03;;
56991;SDS011;42885;49.754;18.636;2023-04-22T13:31:56;7.45;;;5.45;;
56991;SDS011;42885;49.754;18.636;2023-04-22T13:34:29;11.20;;;6.25;;
56991;SDS011;42885;49.754;18.636;2023-04-22T13:37:01;6.42;;;5.42;;
56991;SDS011;42885;49.754;18.636;2023-04-22T13:39:34;7.63;;;5.03;;
56991;SDS011;42885;49.754;18.636;2023-04-22T13:42:05;7.17;;;5.22;;
56991;SDS011;42885;49.754;18.636;2023-04-22T13:44:37;7.78;;;5.55;;
56991;SDS011;42885;49.754;18.636;2023-04-22T13:47:09;7.03;;;4.80;;
56991;SDS011;42885;49.754;18.636;2023-04-22T13:49:59;7.33;;;5.10;;
56991;SDS011;42885;49.754;18.636;2023-04-22T13:52:50;7.60;;;5.05;;
56991;SDS011;42885;49.754;18.636;2023-04-22T13:55:31;6.92;;;5.05;;
56991;SDS011;42885;49.754;18.636;2023-04-22T13:58:16;6.47;;;5.58;;
56991;SDS011;42885;49.754;18.636;2023-04-22T14:01:07;6.10;;;5.20;;
56991;SDS011;42885;49.754;18.636;2023-04-22T14:03:44;16.02;;;13.53;;
56991;SDS011;42885;49.754;18.636;2023-04-22T14:06:34;16.93;;;12.80;;
56991;SDS011;42885;49.754;18.636;2023-04-22T14:09:23;10.18;;;7.67;;
56991;SDS011;42885;49.754;18.636;2023-04-22T14:11:59;9.10;;;5.20;;
56991;SDS011;42885;49.754;18.636;2023-04-22T14:14:31;6.62;;;4.70;;
56991;SDS011;42885;49.754;18.636;2023-04-22T14:17:02;17.35;;;15.13;;
56991;SDS011;42885;49.754;18.636;2023-04-22T14:19:33;8.60;;;5.87;;
56991;SDS011;42885;49.754;18.636;2023-04-22T14:22:06;5.83;;;5.20;;
56991;SDS011;42885;49.754;18.636;2023-04-22T14:24:42;5.85;;;5.22;;
56991;SDS011;42885;49.754;18.636;2023-04-22T14:27:14;6.30;;;5.10;;
56991;SDS011;42885;49.754;18.636;2023-04-22T14:30:04;8.13;;;5.00;;
56991;SDS011;42885;49.754;18.636;2023-04-22T14:32:36;6.67;;;4.67;;
56991;SDS011;42885;49.754;18.636;2023-04-22T14:35:07;8.67;;;5.53;;
56991;SDS011;42885;49.754;18.636;2023-04-22T14:37:38;5.70;;;5.10;;
56991;SDS011;42885;49.754;18.636;2023-04-22T14:40:13;7.07;;;5.33;;
56991;SDS011;42885;49.754;18.636;2023-04-22T14:43:03;10.15;;;5.58;;
56991;SDS011;42885;49.754;18.636;2023-04-22T14:45:53;6.72;;;4.67;;
56991;SDS011;42885;49.754;18.636;2023-04-22T14:48:43;9.38;;;4.95;;
56991;SDS011;42885;49.754;18.636;2023-04-22T14:51:32;6.17;;;5.20;;
56991;SDS011;42885;49.754;18.636;2023-04-22T14:54:04;5.20;;;4.70;;
56991;SDS011;42885;49.754;18.636;2023-04-22T14:56:35;9.33;;;5.30;;
56991;SDS011;42885;49.754;18.636;2023-04-22T14:59:06;5.80;;;5.17;;
56991;SDS011;42885;49.754;18.636;2023-04-22T15:01:37;6.47;;;5.55;;
56991;SDS011;42885;49.754;18.636;2023-04-22T15:04:09;8.08;;;4.72;;
56991;SDS011;42885;49.754;18.636;2023-04-22T15:06:42;7.50;;;4.53;;
56991;SDS011;42885;49.754;18.636;2023-04-22T15:09:13;8.60;;;4.80;;
56991;SDS011;42885;49.754;18.636;2023-04-22T15:11:44;9.20;;;4.92;;
56991;SDS011;42885;49.754;18.636;2023-04-22T15:14:15;6.77;;;4.77;;
56991;SDS011;42885;49.754;18.636;2023-04-22T15:16:46;8.47;;;4.60;;